sensor_id;sensor_type;location;lat;lon;timestamp;P1;durP1;ratioP1;P2;durP2;ratioP2
72864;SDS011;61000;48.120;11.548;2022-12-18T00:00:44;50.23;;;18.70;;
72864;SDS011;61000;48.120;11.548;2022-12-18T00:03:12;49.00;;;19.73;;
72864;SDS011;61000;48.120;11.548;2022-12-18T00:05:46;53.47;;;21.03;;
72864;SDS011;61000;48.120;11.548;2022-12-18T00:08:14;51.83;;;20.97;;
72864;SDS011;61000;48.120;11.548;2022-12-18T00:10:41;59.67;;;21.87;;
72864;SDS011;61000;48.120;11.548;2022-12-18T00:13:08;63.13;;;23.00;;
72864;SDS011;61000;48.120;11.548;2022-12-18T00:15:35;55.33;;;21.67;;
72864;SDS011;61000;48.120;11.548;2022-12-18T00:18:03;62.57;;;23.53;;
72864;SDS011;61000;48.120;11.548;2022-12-18T00:20:30;58.93;;;21.47;;
72864;SDS011;61000;48.120;11.548;2022-12-18T00:22:58;52.67;;;22.33;;
72864;SDS011;61000;48.120;11.548;2022-12-18T00:25:25;52.83;;;20.77;;
72864;SDS011;61000;48.120;11.548;2022-12-18T00:27:52;54.50;;;21.90;;
72864;SDS011;61000;48.120;11.548;2022-12-18T00:30:19;49.50;;;20.53;;
72864;SDS011;61000;48.120;11.548;2022-12-18T00:32:45;52.73;;;21.10;;
72864;SDS011;61000;48.120;11.548;2022-12-18T00:35:12;57.43;;;22.23;;
72864;SDS011;61000;48.120;11.548;2022-12-18T00:37:39;54.90;;;22.17;;
72864;SDS011;61000;48.120;11.548;2022-12-18T00:40:08;58.60;;;22.30;;
72864;SDS011;61000;48.120;11.548;2022-12-18T00:42:36;53.20;;;22.30;;
72864;SDS011;61000;48.120;11.548;2022-12-18T00:45:20;59.07;;;21.97;;
72864;SDS011;61000;48.120;11.548;2022-12-18T00:47:48;54.80;;;23.30;;
72864;SDS011;61000;48.120;11.548;2022-12-18T00:50:15;55.73;;;22.07;;
72864;SDS011;61000;48.120;11.548;2022-12-18T00:52:42;57.27;;;21.97;;
72864;SDS011;61000;48.120;11.548;2022-12-18T00:55:10;48.30;;;19.43;;
72864;SDS011;61000;48.120;11.548;2022-12-18T00:57:38;60.67;;;21.67;;
72864;SDS011;61000;48.120;11.548;2022-12-18T01:00:05;55.63;;;20.93;;
72864;SDS011;61000;48.120;11.548;2022-12-18T01:02:34;46.00;;;19.30;;
72864;SDS011;61000;48.120;11.548;2022-12-18T01:05:01;57.13;;;20.10;;
72864;SDS011;61000;48.120;11.548;2022-12-18T01:07:27;54.23;;;20.57;;
72864;SDS011;61000;48.120;11.548;2022-12-18T01:09:54;49.50;;;20.97;;
72864;SDS011;61000;48.120;11.548;2022-12-18T01:12:22;54.93;;;22.03;;
72864;SDS011;61000;48.120;11.548;2022-12-18T01:14:49;55.90;;;19.87;;
72864;SDS011;61000;48.120;11.548;2022-12-18T01:17:16;51.70;;;18.90;;
72864;SDS011;61000;48.120;11.548;2022-12-18T01:19:43;45.67;;;18.53;;
72864;SDS011;61000;48.120;11.548;2022-12-18T01:22:10;47.80;;;19.50;;
72864;SDS011;61000;48.120;11.548;2022-12-18T01:24:37;53.10;;;18.63;;
72864;SDS011;61000;48.120;11.548;2022-12-18T01:27:04;52.93;;;18.60;;
72864;SDS011;61000;48.120;11.548;2022-12-18T01:29:32;48.90;;;19.63;;
72864;SDS011;61000;48.120;11.548;2022-12-18T01:31:59;51.77;;;19.93;;
72864;SDS011;61000;48.120;11.548;2022-12-18T01:34:28;44.27;;;18.63;;
72864;SDS011;61000;48.120;11.548;2022-12-18T01:36:55;45.03;;;20.43;;
72864;SDS011;61000;48.120;11.548;2022-12-18T01:39:23;48.97;;;19.57;;
72864;SDS011;61000;48.120;11.548;2022-12-18T01:41:49;52.70;;;19.23;;
72864;SDS011;61000;48.120;11.548;2022-12-18T01:44:53;47.10;;;17.77;;
72864;SDS011;61000;48.120;11.548;2022-12-18T01:47:23;56.20;;;20.63;;
72864;SDS011;61000;48.120;11.548;2022-12-18T01:49:52;48.73;;;19.60;;
72864;SDS011;61000;48.120;11.548;2022-12-18T01:52:19;48.00;;;20.27;;
72864;SDS011;61000;48.120;11.548;2022-12-18T01:54:48;50.33;;;19.63;;
72864;SDS011;61000;48.120;11.548;2022-12-18T01:57:16;47.17;;;18.97;;
72864;SDS011;61000;48.120;11.548;2022-12-18T01:59:43;63.67;;;21.20;;
72864;SDS011;61000;48.120;11.548;2022-12-18T02:02:16;51.63;;;19.50;;
72864;SDS011;61000;48.120;11.548;2022-12-18T02:04:43;45.67;;;19.33;;
72864;SDS011;61000;48.120;11.548;2022-12-18T02:07:11;48.10;;;19.77;;
72864;SDS011;61000;48.120;11.548;2022-12-18T02:09:46;52.23;;;19.70;;
72864;SDS011;61000;48.120;11.548;2022-12-18T02:12:17;51.47;;;19.63;;
72864;SDS011;61000;48.120;11.548;2022-12-18T02:14:49;58.73;;;21.47;;
72864;SDS011;61000;48.120;11.548;2022-12-18T02:17:23;63.63;;;23.20;;
72864;SDS011;61000;48.120;11.548;2022-12-18T02:19:59;58.00;;;22.03;;
72864;SDS011;61000;48.120;11.548;2022-12-18T02:22:36;54.83;;;21.40;;
72864;SDS011;61000;48.120;11.548;2022-12-18T02:25:14;59.77;;;20.53;;
72864;SDS011;61000;48.120;11.548;2022-12-18T02:27:53;65.00;;;21.77;;
72864;SDS011;61000;48.120;11.548;2022-12-18T02:30:23;59.40;;;21.97;;
72864;SDS011;61000;48.120;11.548;2022-12-18T02:32:50;62.27;;;23.27;;
72864;SDS011;61000;48.120;11.548;2022-12-18T02:35:20;71.30;;;22.60;;
72864;SDS011;61000;48.120;11.548;2022-12-18T02:37:52;63.17;;;21.03;;
72864;SDS011;61000;48.120;11.548;2022-12-18T02:40:20;51.33;;;22.13;;
72864;SDS011;61000;48.120;11.548;2022-12-18T02:42:49;58.43;;;22.60;;
72864;SDS011;61000;48.120;11.548;2022-12-18T02:45:19;54.77;;;21.13;;
72864;SDS011;61000;48.120;11.548;2022-12-18T02:47:47;60.87;;;20.57;;
72864;SDS011;61000;48.120;11.548;2022-12-18T02:50:16;59.37;;;20.17;;
72864;SDS011;61000;48.120;11.548;2022-12-18T02:52:54;56.47;;;20.03;;
72864;SDS011;61000;48.120;11.548;2022-12-18T02:55:29;62.20;;;23.03;;
72864;SDS011;61000;48.120;11.548;2022-12-18T02:58:13;61.63;;;21.80;;
72864;SDS011;61000;48.120;11.548;2022-12-18T03:00:50;56.53;;;21.50;;
72864;SDS011;61000;48.120;11.548;2022-12-18T03:03:24;69.33;;;22.87;;
72864;SDS011;61000;48.120;11.548;2022-12-18T03:05:56;72.30;;;21.90;;
72864;SDS011;61000;48.120;11.548;2022-12-18T03:08:29;58.33;;;22.03;;
72864;SDS011;61000;48.120;11.548;2022-12-18T03:11:00;61.50;;;22.60;;
72864;SDS011;61000;48.120;11.548;2022-12-18T03:13:31;61.73;;;22.50;;
72864;SDS011;61000;48.120;11.548;2022-12-18T03:16:04;67.27;;;22.97;;
72864;SDS011;61000;48.120;11.548;2022-12-18T03:18:35;57.40;;;20.90;;
72864;SDS011;61000;48.120;11.548;2022-12-18T03:21:06;68.73;;;22.40;;
72864;SDS011;61000;48.120;11.548;2022-12-18T03:23:38;54.00;;;21.30;;
72864;SDS011;61000;48.120;11.548;2022-12-18T03:26:10;67.67;;;24.23;;
72864;SDS011;61000;48.120;11.548;2022-12-18T03:28:42;59.10;;;22.27;;
72864;SDS011;61000;48.120;11.548;2022-12-18T03:31:14;58.27;;;22.47;;
72864;SDS011;61000;48.120;11.548;2022-12-18T03:33:44;59.43;;;22.77;;
72864;SDS011;61000;48.120;11.548;2022-12-18T03:36:13;55.57;;;22.43;;
72864;SDS011;61000;48.120;11.548;2022-12-18T03:38:41;64.30;;;22.47;;
72864;SDS011;61000;48.120;11.548;2022-12-18T03:41:10;57.47;;;21.90;;
72864;SDS011;61000;48.120;11.548;2022-12-18T03:44:18;66.93;;;24.20;;
72864;SDS011;61000;48.120;11.548;2022-12-18T03:46:55;58.90;;;23.20;;
72864;SDS011;61000;48.120;11.548;2022-12-18T03:49:38;67.03;;;23.37;;
72864;SDS011;61000;48.120;11.548;2022-12-18T03:52:09;60.37;;;22.80;;
72864;SDS011;61000;48.120;11.548;2022-12-18T03:54:39;50.47;;;20.80;;
72864;SDS011;61000;48.120;11.548;2022-12-18T03:57:13;60.23;;;22.20;;
72864;SDS011;61000;48.120;11.548;2022-12-18T03:59:43;63.50;;;23.00;;
72864;SDS011;61000;48.120;11.548;2022-12-18T04:02:15;63.77;;;22.97;;
72864;SDS011;61000;48.120;11.548;2022-12-18T04:04:44;56.33;;;22.27;;
72864;SDS011;61000;48.120;11.548;2022-12-18T04:07:15;67.27;;;24.40;;
72864;SDS011;61000;48.120;11.548;2022-12-18T04:09:43;53.53;;;21.13;;
72864;SDS011;61000;48.120;11.548;2022-12-18T04:12:14;57.70;;;23.37;;
72864;SDS011;61000;48.120;11.548;2022-12-18T04:14:43;59.73;;;20.70;;
72864;SDS011;61000;48.120;11.548;2022-12-18T04:17:10;64.20;;;22.60;;
72864;SDS011;61000;48.120;11.548;2022-12-18T04:19:38;61.40;;;23.40;;
72864;SDS011;61000;48.120;11.548;2022-12-18T04:22:08;68.40;;;23.30;;
72864;SDS011;61000;48.120;11.548;2022-12-18T04:24:41;58.63;;;21.47;;
72864;SDS011;61000;48.120;11.548;2022-12-18T04:27:15;60.97;;;22.37;;
72864;SDS011;61000;48.120;11.548;2022-12-18T04:29:46;60.13;;;22.93;;
72864;SDS011;61000;48.120;11.548;2022-12-18T04:32:14;49.53;;;20.67;;
72864;SDS011;61000;48.120;11.548;2022-12-18T04:34:44;60.50;;;22.37;;
72864;SDS011;61000;48.120;11.548;2022-12-18T04:37:11;57.07;;;21.90;;
72864;SDS011;61000;48.120;11.548;2022-12-18T04:39:38;57.17;;;20.97;;
72864;SDS011;61000;48.120;11.548;2022-12-18T04:42:11;52.87;;;21.07;;
72864;SDS011;61000;48.120;11.548;2022-12-18T04:44:38;55.27;;;22.33;;
72864;SDS011;61000;48.120;11.548;2022-12-18T04:47:05;52.50;;;20.03;;
72864;SDS011;61000;48.120;11.548;2022-12-18T04:49:32;54.27;;;21.00;;
72864;SDS011;61000;48.120;11.548;2022-12-18T04:52:00;56.80;;;22.57;;
72864;SDS011;61000;48.120;11.548;2022-12-18T04:54:27;52.47;;;21.00;;
72864;SDS011;61000;48.120;11.548;2022-12-18T04:56:54;47.97;;;19.93;;
72864;SDS011;61000;48.120;11.548;2022-12-18T04:59:21;54.33;;;20.43;;
72864;SDS011;61000;48.120;11.548;2022-12-18T05:01:48;46.17;;;18.47;;
72864;SDS011;61000;48.120;11.548;2022-12-18T05:04:15;47.50;;;19.90;;
72864;SDS011;61000;48.120;11.548;2022-12-18T05:06:41;49.10;;;18.80;;
72864;SDS011;61000;48.120;11.548;2022-12-18T05:09:10;47.73;;;18.43;;
72864;SDS011;61000;48.120;11.548;2022-12-18T05:11:36;43.27;;;18.07;;
72864;SDS011;61000;48.120;11.548;2022-12-18T05:14:03;47.40;;;18.93;;
72864;SDS011;61000;48.120;11.548;2022-12-18T05:16:30;46.23;;;19.93;;
72864;SDS011;61000;48.120;11.548;2022-12-18T05:18:57;43.40;;;18.53;;
72864;SDS011;61000;48.120;11.548;2022-12-18T05:21:24;47.63;;;19.03;;
72864;SDS011;61000;48.120;11.548;2022-12-18T05:23:50;46.53;;;20.40;;
72864;SDS011;61000;48.120;11.548;2022-12-18T05:26:19;53.37;;;19.00;;
72864;SDS011;61000;48.120;11.548;2022-12-18T05:28:46;42.53;;;18.27;;
72864;SDS011;61000;48.120;11.548;2022-12-18T05:31:12;48.27;;;17.40;;
72864;SDS011;61000;48.120;11.548;2022-12-18T05:33:39;48.40;;;18.67;;
72864;SDS011;61000;48.120;11.548;2022-12-18T05:36:07;46.13;;;18.07;;
72864;SDS011;61000;48.120;11.548;2022-12-18T05:38:36;46.90;;;18.03;;
72864;SDS011;61000;48.120;11.548;2022-12-18T05:41:05;49.83;;;18.83;;
72864;SDS011;61000;48.120;11.548;2022-12-18T05:43:34;52.50;;;20.30;;
72864;SDS011;61000;48.120;11.548;2022-12-18T05:46:03;50.97;;;20.27;;
72864;SDS011;61000;48.120;11.548;2022-12-18T05:48:30;39.37;;;17.87;;
72864;SDS011;61000;48.120;11.548;2022-12-18T05:51:02;37.87;;;18.67;;
72864;SDS011;61000;48.120;11.548;2022-12-18T05:53:30;45.50;;;17.90;;
72864;SDS011;61000;48.120;11.548;2022-12-18T05:55:59;40.27;;;16.67;;
72864;SDS011;61000;48.120;11.548;2022-12-18T05:58:27;52.53;;;19.73;;
72864;SDS011;61000;48.120;11.548;2022-12-18T06:00:56;51.00;;;20.07;;
72864;SDS011;61000;48.120;11.548;2022-12-18T06:03:24;48.50;;;18.67;;
72864;SDS011;61000;48.120;11.548;2022-12-18T06:05:50;44.43;;;19.10;;
72864;SDS011;61000;48.120;11.548;2022-12-18T06:08:17;42.13;;;17.77;;
72864;SDS011;61000;48.120;11.548;2022-12-18T06:10:49;43.60;;;18.43;;
72864;SDS011;61000;48.120;11.548;2022-12-18T06:13:17;45.37;;;19.30;;
72864;SDS011;61000;48.120;11.548;2022-12-18T06:15:44;43.27;;;20.00;;
72864;SDS011;61000;48.120;11.548;2022-12-18T06:18:12;40.93;;;15.93;;
72864;SDS011;61000;48.120;11.548;2022-12-18T06:20:39;43.90;;;18.10;;
72864;SDS011;61000;48.120;11.548;2022-12-18T06:23:06;44.37;;;18.67;;
72864;SDS011;61000;48.120;11.548;2022-12-18T06:25:36;43.13;;;16.10;;
72864;SDS011;61000;48.120;11.548;2022-12-18T06:28:05;45.13;;;18.60;;
72864;SDS011;61000;48.120;11.548;2022-12-18T06:30:32;51.57;;;17.83;;
72864;SDS011;61000;48.120;11.548;2022-12-18T06:32:59;42.40;;;15.80;;
72864;SDS011;61000;48.120;11.548;2022-12-18T06:35:27;43.60;;;18.03;;
72864;SDS011;61000;48.120;11.548;2022-12-18T06:37:54;42.13;;;16.87;;
72864;SDS011;61000;48.120;11.548;2022-12-18T06:40:21;39.00;;;17.40;;
72864;SDS011;61000;48.120;11.548;2022-12-18T06:42:48;42.30;;;17.67;;
72864;SDS011;61000;48.120;11.548;2022-12-18T06:45:15;53.47;;;20.23;;
72864;SDS011;61000;48.120;11.548;2022-12-18T06:47:42;47.00;;;18.97;;
72864;SDS011;61000;48.120;11.548;2022-12-18T06:50:09;47.03;;;18.77;;
72864;SDS011;61000;48.120;11.548;2022-12-18T06:52:38;42.27;;;19.13;;
72864;SDS011;61000;48.120;11.548;2022-12-18T06:55:05;49.23;;;19.00;;
72864;SDS011;61000;48.120;11.548;2022-12-18T06:57:33;45.17;;;18.57;;
72864;SDS011;61000;48.120;11.548;2022-12-18T07:00:00;43.40;;;17.07;;
72864;SDS011;61000;48.120;11.548;2022-12-18T07:02:27;48.10;;;17.63;;
72864;SDS011;61000;48.120;11.548;2022-12-18T07:04:54;39.80;;;16.63;;
72864;SDS011;61000;48.120;11.548;2022-12-18T07:07:21;46.37;;;19.30;;
72864;SDS011;61000;48.120;11.548;2022-12-18T07:09:50;47.50;;;17.30;;
72864;SDS011;61000;48.120;11.548;2022-12-18T07:12:17;44.13;;;19.40;;
72864;SDS011;61000;48.120;11.548;2022-12-18T07:14:44;41.53;;;17.50;;
72864;SDS011;61000;48.120;11.548;2022-12-18T07:17:11;40.03;;;17.73;;
72864;SDS011;61000;48.120;11.548;2022-12-18T07:19:38;38.43;;;17.53;;
72864;SDS011;61000;48.120;11.548;2022-12-18T07:22:05;43.03;;;17.97;;
72864;SDS011;61000;48.120;11.548;2022-12-18T07:24:32;41.33;;;17.77;;
72864;SDS011;61000;48.120;11.548;2022-12-18T07:27:00;35.70;;;17.03;;
72864;SDS011;61000;48.120;11.548;2022-12-18T07:29:27;36.93;;;16.43;;
72864;SDS011;61000;48.120;11.548;2022-12-18T07:31:54;40.03;;;16.53;;
72864;SDS011;61000;48.120;11.548;2022-12-18T07:34:21;37.00;;;16.33;;
72864;SDS011;61000;48.120;11.548;2022-12-18T07:36:48;41.23;;;15.00;;
72864;SDS011;61000;48.120;11.548;2022-12-18T07:39:15;40.53;;;17.43;;
72864;SDS011;61000;48.120;11.548;2022-12-18T07:41:41;47.17;;;18.57;;
72864;SDS011;61000;48.120;11.548;2022-12-18T07:44:12;44.53;;;18.27;;
72864;SDS011;61000;48.120;11.548;2022-12-18T07:46:39;45.57;;;18.47;;
72864;SDS011;61000;48.120;11.548;2022-12-18T07:49:06;42.33;;;17.73;;
72864;SDS011;61000;48.120;11.548;2022-12-18T07:51:33;45.80;;;18.07;;
72864;SDS011;61000;48.120;11.548;2022-12-18T07:54:00;47.80;;;17.87;;
72864;SDS011;61000;48.120;11.548;2022-12-18T07:56:26;39.20;;;16.10;;
72864;SDS011;61000;48.120;11.548;2022-12-18T07:58:53;44.23;;;18.03;;
72864;SDS011;61000;48.120;11.548;2022-12-18T08:01:22;46.63;;;18.73;;
72864;SDS011;61000;48.120;11.548;2022-12-18T08:03:49;44.80;;;16.97;;
72864;SDS011;61000;48.120;11.548;2022-12-18T08:06:16;45.83;;;17.57;;
72864;SDS011;61000;48.120;11.548;2022-12-18T08:08:43;41.50;;;17.13;;
72864;SDS011;61000;48.120;11.548;2022-12-18T08:11:09;41.47;;;17.70;;
72864;SDS011;61000;48.120;11.548;2022-12-18T08:13:36;41.37;;;16.70;;
72864;SDS011;61000;48.120;11.548;2022-12-18T08:16:04;40.50;;;16.37;;
72864;SDS011;61000;48.120;11.548;2022-12-18T08:18:35;47.20;;;18.97;;
72864;SDS011;61000;48.120;11.548;2022-12-18T08:21:09;45.27;;;17.53;;
72864;SDS011;61000;48.120;11.548;2022-12-18T08:23:36;42.60;;;18.17;;
72864;SDS011;61000;48.120;11.548;2022-12-18T08:26:04;48.37;;;17.40;;
72864;SDS011;61000;48.120;11.548;2022-12-18T08:28:31;40.17;;;17.63;;
72864;SDS011;61000;48.120;11.548;2022-12-18T08:30:58;39.33;;;17.10;;
72864;SDS011;61000;48.120;11.548;2022-12-18T08:33:25;43.07;;;17.57;;
72864;SDS011;61000;48.120;11.548;2022-12-18T08:35:53;36.80;;;17.13;;
72864;SDS011;61000;48.120;11.548;2022-12-18T08:38:20;48.80;;;18.83;;
72864;SDS011;61000;48.120;11.548;2022-12-18T08:40:48;41.90;;;17.13;;
72864;SDS011;61000;48.120;11.548;2022-12-18T08:43:15;44.37;;;18.10;;
72864;SDS011;61000;48.120;11.548;2022-12-18T08:45:59;37.73;;;15.77;;
72864;SDS011;61000;48.120;11.548;2022-12-18T08:48:26;47.33;;;17.37;;
72864;SDS011;61000;48.120;11.548;2022-12-18T08:50:55;34.07;;;16.03;;
72864;SDS011;61000;48.120;11.548;2022-12-18T08:53:22;39.77;;;17.03;;
72864;SDS011;61000;48.120;11.548;2022-12-18T08:55:49;40.43;;;17.23;;
72864;SDS011;61000;48.120;11.548;2022-12-18T08:58:16;42.40;;;17.67;;
72864;SDS011;61000;48.120;11.548;2022-12-18T09:00:43;40.27;;;16.83;;
72864;SDS011;61000;48.120;11.548;2022-12-18T09:03:10;38.37;;;16.93;;
72864;SDS011;61000;48.120;11.548;2022-12-18T09:05:38;44.83;;;17.67;;
72864;SDS011;61000;48.120;11.548;2022-12-18T09:08:07;39.73;;;17.27;;
72864;SDS011;61000;48.120;11.548;2022-12-18T09:10:34;40.97;;;16.87;;
72864;SDS011;61000;48.120;11.548;2022-12-18T09:13:07;36.47;;;17.13;;
72864;SDS011;61000;48.120;11.548;2022-12-18T09:15:34;39.63;;;17.30;;
72864;SDS011;61000;48.120;11.548;2022-12-18T09:18:00;37.03;;;16.23;;
72864;SDS011;61000;48.120;11.548;2022-12-18T09:20:27;51.57;;;18.17;;
72864;SDS011;61000;48.120;11.548;2022-12-18T09:22:54;38.23;;;16.17;;
72864;SDS011;61000;48.120;11.548;2022-12-18T09:25:23;37.67;;;16.33;;
72864;SDS011;61000;48.120;11.548;2022-12-18T09:27:50;36.83;;;15.33;;
72864;SDS011;61000;48.120;11.548;2022-12-18T09:30:17;39.63;;;16.77;;
72864;SDS011;61000;48.120;11.548;2022-12-18T09:32:44;38.07;;;17.37;;
72864;SDS011;61000;48.120;11.548;2022-12-18T09:35:11;37.67;;;16.27;;
72864;SDS011;61000;48.120;11.548;2022-12-18T09:37:37;37.00;;;16.03;;
72864;SDS011;61000;48.120;11.548;2022-12-18T09:40:05;34.57;;;16.00;;
72864;SDS011;61000;48.120;11.548;2022-12-18T09:42:33;37.83;;;16.83;;
72864;SDS011;61000;48.120;11.548;2022-12-18T09:45:00;34.57;;;14.33;;
72864;SDS011;61000;48.120;11.548;2022-12-18T09:47:30;37.70;;;15.90;;
72864;SDS011;61000;48.120;11.548;2022-12-18T09:50:01;39.10;;;16.70;;
72864;SDS011;61000;48.120;11.548;2022-12-18T09:52:32;35.77;;;13.70;;
72864;SDS011;61000;48.120;11.548;2022-12-18T09:55:05;32.73;;;15.83;;
72864;SDS011;61000;48.120;11.548;2022-12-18T09:57:39;39.23;;;15.90;;
72864;SDS011;61000;48.120;11.548;2022-12-18T10:00:12;35.47;;;15.97;;
72864;SDS011;61000;48.120;11.548;2022-12-18T10:02:43;40.47;;;15.93;;
72864;SDS011;61000;48.120;11.548;2022-12-18T10:05:11;37.43;;;16.07;;
72864;SDS011;61000;48.120;11.548;2022-12-18T10:07:43;38.33;;;16.33;;
72864;SDS011;61000;48.120;11.548;2022-12-18T10:10:23;30.33;;;13.93;;
72864;SDS011;61000;48.120;11.548;2022-12-18T10:13:05;37.43;;;16.10;;
72864;SDS011;61000;48.120;11.548;2022-12-18T10:15:39;35.20;;;16.43;;
72864;SDS011;61000;48.120;11.548;2022-12-18T10:18:19;34.57;;;17.40;;
72864;SDS011;61000;48.120;11.548;2022-12-18T10:20:52;44.57;;;17.77;;
72864;SDS011;61000;48.120;11.548;2022-12-18T10:23:24;42.57;;;17.03;;
72864;SDS011;61000;48.120;11.548;2022-12-18T10:25:59;32.93;;;15.07;;
72864;SDS011;61000;48.120;11.548;2022-12-18T10:28:31;39.20;;;18.30;;
72864;SDS011;61000;48.120;11.548;2022-12-18T10:31:04;39.07;;;17.77;;
72864;SDS011;61000;48.120;11.548;2022-12-18T10:33:32;40.53;;;18.23;;
72864;SDS011;61000;48.120;11.548;2022-12-18T10:36:00;37.50;;;18.33;;
72864;SDS011;61000;48.120;11.548;2022-12-18T10:38:28;30.80;;;14.40;;
72864;SDS011;61000;48.120;11.548;2022-12-18T10:40:57;32.47;;;16.70;;
72864;SDS011;61000;48.120;11.548;2022-12-18T10:43:26;38.10;;;17.00;;
72864;SDS011;61000;48.120;11.548;2022-12-18T10:46:04;39.00;;;15.73;;
72864;SDS011;61000;48.120;11.548;2022-12-18T10:48:41;38.33;;;16.63;;
72864;SDS011;61000;48.120;11.548;2022-12-18T10:51:19;33.10;;;14.90;;
72864;SDS011;61000;48.120;11.548;2022-12-18T10:53:51;32.43;;;16.50;;
72864;SDS011;61000;48.120;11.548;2022-12-18T10:56:21;34.17;;;16.23;;
72864;SDS011;61000;48.120;11.548;2022-12-18T10:58:55;35.63;;;15.93;;
72864;SDS011;61000;48.120;11.548;2022-12-18T11:01:25;34.30;;;16.13;;
72864;SDS011;61000;48.120;11.548;2022-12-18T11:04:00;35.97;;;17.67;;
72864;SDS011;61000;48.120;11.548;2022-12-18T11:06:33;33.07;;;15.93;;
72864;SDS011;61000;48.120;11.548;2022-12-18T11:09:01;35.53;;;15.40;;
72864;SDS011;61000;48.120;11.548;2022-12-18T11:11:47;30.97;;;14.20;;
72864;SDS011;61000;48.120;11.548;2022-12-18T11:14:15;34.03;;;16.33;;
72864;SDS011;61000;48.120;11.548;2022-12-18T11:16:48;34.50;;;15.47;;
72864;SDS011;61000;48.120;11.548;2022-12-18T11:19:21;39.10;;;15.93;;
72864;SDS011;61000;48.120;11.548;2022-12-18T11:21:54;38.57;;;16.53;;
72864;SDS011;61000;48.120;11.548;2022-12-18T11:24:24;38.20;;;16.43;;
72864;SDS011;61000;48.120;11.548;2022-12-18T11:26:54;31.00;;;15.43;;
72864;SDS011;61000;48.120;11.548;2022-12-18T11:29:23;36.40;;;16.43;;
72864;SDS011;61000;48.120;11.548;2022-12-18T11:32:04;32.83;;;14.47;;
72864;SDS011;61000;48.120;11.548;2022-12-18T11:35:02;28.83;;;15.10;;
72864;SDS011;61000;48.120;11.548;2022-12-18T11:37:35;36.87;;;15.43;;
72864;SDS011;61000;48.120;11.548;2022-12-18T11:40:05;35.03;;;16.00;;
72864;SDS011;61000;48.120;11.548;2022-12-18T11:42:38;33.63;;;16.50;;
72864;SDS011;61000;48.120;11.548;2022-12-18T11:45:21;33.20;;;15.20;;
72864;SDS011;61000;48.120;11.548;2022-12-18T11:47:57;30.90;;;14.97;;
72864;SDS011;61000;48.120;11.548;2022-12-18T11:50:29;35.17;;;15.27;;
72864;SDS011;61000;48.120;11.548;2022-12-18T11:53:09;36.07;;;16.33;;
72864;SDS011;61000;48.120;11.548;2022-12-18T11:55:49;33.47;;;17.03;;
72864;SDS011;61000;48.120;11.548;2022-12-18T11:58:46;31.17;;;15.43;;
72864;SDS011;61000;48.120;11.548;2022-12-18T12:01:26;32.77;;;14.83;;
72864;SDS011;61000;48.120;11.548;2022-12-18T12:04:22;30.13;;;14.63;;
72864;SDS011;61000;48.120;11.548;2022-12-18T12:07:16;34.43;;;15.93;;
72864;SDS011;61000;48.120;11.548;2022-12-18T12:09:57;32.00;;;15.57;;
72864;SDS011;61000;48.120;11.548;2022-12-18T12:12:36;40.97;;;16.60;;
72864;SDS011;61000;48.120;11.548;2022-12-18T12:15:27;37.30;;;16.30;;
72864;SDS011;61000;48.120;11.548;2022-12-18T12:18:05;42.63;;;16.70;;
72864;SDS011;61000;48.120;11.548;2022-12-18T12:20:44;35.73;;;16.27;;
72864;SDS011;61000;48.120;11.548;2022-12-18T12:23:20;34.33;;;16.47;;
72864;SDS011;61000;48.120;11.548;2022-12-18T12:25:56;34.57;;;15.33;;
72864;SDS011;61000;48.120;11.548;2022-12-18T12:28:33;34.10;;;16.17;;
72864;SDS011;61000;48.120;11.548;2022-12-18T12:31:13;34.50;;;15.87;;
72864;SDS011;61000;48.120;11.548;2022-12-18T12:33:51;36.23;;;16.30;;
72864;SDS011;61000;48.120;11.548;2022-12-18T12:36:30;34.60;;;15.47;;
72864;SDS011;61000;48.120;11.548;2022-12-18T12:39:05;38.07;;;15.83;;
72864;SDS011;61000;48.120;11.548;2022-12-18T12:41:34;30.77;;;14.67;;
72864;SDS011;61000;48.120;11.548;2022-12-18T12:44:21;33.60;;;14.83;;
72864;SDS011;61000;48.120;11.548;2022-12-18T12:46:51;31.37;;;14.63;;
72864;SDS011;61000;48.120;11.548;2022-12-18T12:49:21;30.40;;;13.87;;
72864;SDS011;61000;48.120;11.548;2022-12-18T12:51:56;36.27;;;16.93;;
72864;SDS011;61000;48.120;11.548;2022-12-18T12:54:31;38.80;;;15.97;;
72864;SDS011;61000;48.120;11.548;2022-12-18T12:57:00;32.10;;;15.40;;
72864;SDS011;61000;48.120;11.548;2022-12-18T12:59:35;36.47;;;15.80;;
72864;SDS011;61000;48.120;11.548;2022-12-18T13:02:10;34.70;;;15.13;;
72864;SDS011;61000;48.120;11.548;2022-12-18T13:04:45;39.50;;;16.43;;
72864;SDS011;61000;48.120;11.548;2022-12-18T13:07:19;32.13;;;15.23;;
72864;SDS011;61000;48.120;11.548;2022-12-18T13:10:22;29.33;;;14.63;;
72864;SDS011;61000;48.120;11.548;2022-12-18T13:12:52;34.70;;;14.73;;
72864;SDS011;61000;48.120;11.548;2022-12-18T13:15:23;29.37;;;15.27;;
72864;SDS011;61000;48.120;11.548;2022-12-18T13:18:06;28.97;;;14.10;;
72864;SDS011;61000;48.120;11.548;2022-12-18T13:20:40;30.10;;;12.83;;
72864;SDS011;61000;48.120;11.548;2022-12-18T13:23:23;36.60;;;16.03;;
72864;SDS011;61000;48.120;11.548;2022-12-18T13:25:57;34.50;;;14.50;;
72864;SDS011;61000;48.120;11.548;2022-12-18T13:34:15;33.27;;;16.13;;
72864;SDS011;61000;48.120;11.548;2022-12-18T13:36:44;29.33;;;13.47;;
72864;SDS011;61000;48.120;11.548;2022-12-18T13:45:40;37.03;;;17.43;;
72864;SDS011;61000;48.120;11.548;2022-12-18T13:48:17;32.50;;;16.67;;
72864;SDS011;61000;48.120;11.548;2022-12-18T13:50:52;30.43;;;14.80;;
72864;SDS011;61000;48.120;11.548;2022-12-18T13:53:32;41.37;;;17.00;;
72864;SDS011;61000;48.120;11.548;2022-12-18T13:56:04;31.40;;;14.37;;
72864;SDS011;61000;48.120;11.548;2022-12-18T13:58:31;32.53;;;15.70;;
72864;SDS011;61000;48.120;11.548;2022-12-18T14:00:58;34.97;;;15.40;;
72864;SDS011;61000;48.120;11.548;2022-12-18T14:03:27;32.83;;;13.80;;
72864;SDS011;61000;48.120;11.548;2022-12-18T14:05:56;31.37;;;14.90;;
72864;SDS011;61000;48.120;11.548;2022-12-18T14:08:29;33.70;;;15.00;;
72864;SDS011;61000;48.120;11.548;2022-12-18T14:11:00;31.63;;;15.07;;
72864;SDS011;61000;48.120;11.548;2022-12-18T14:13:31;37.10;;;15.70;;
72864;SDS011;61000;48.120;11.548;2022-12-18T14:16:00;34.53;;;15.50;;
72864;SDS011;61000;48.120;11.548;2022-12-18T14:18:31;38.47;;;16.30;;
72864;SDS011;61000;48.120;11.548;2022-12-18T14:21:15;36.93;;;15.77;;
72864;SDS011;61000;48.120;11.548;2022-12-18T14:23:44;27.10;;;14.87;;
72864;SDS011;61000;48.120;11.548;2022-12-18T14:26:21;29.33;;;15.23;;
72864;SDS011;61000;48.120;11.548;2022-12-18T14:28:53;37.67;;;16.37;;
72864;SDS011;61000;48.120;11.548;2022-12-18T14:31:21;32.20;;;15.37;;
72864;SDS011;61000;48.120;11.548;2022-12-18T14:33:48;30.03;;;14.10;;
72864;SDS011;61000;48.120;11.548;2022-12-18T14:36:16;24.90;;;13.07;;
72864;SDS011;61000;48.120;11.548;2022-12-18T14:38:47;38.47;;;16.97;;
72864;SDS011;61000;48.120;11.548;2022-12-18T14:41:16;33.80;;;15.87;;